createdAt,value
2019-02-22T00:00:33.888Z,29.53
2019-02-22T00:03:04.860Z,31.20
2019-02-22T00:05:35.929Z,32.00
2019-02-22T00:08:14.361Z,33.10
2019-02-22T00:10:45.488Z,29.30
2019-02-22T00:13:16.729Z,29.17
2019-02-22T00:15:48.658Z,29.67
2019-02-22T00:18:20.251Z,29.23
2019-02-22T00:20:51.053Z,30.67
2019-02-22T00:23:22.112Z,33.53
2019-02-22T00:25:53.442Z,30.77
2019-02-22T00:28:24.611Z,29.80
2019-02-22T00:30:55.292Z,30.80
2019-02-22T00:33:26.524Z,31.03
2019-02-22T00:35:57.369Z,31.70
2019-02-22T00:38:28.696Z,32.50
2019-02-22T00:40:59.781Z,31.57
2019-02-22T00:43:31.079Z,29.50
2019-02-22T00:46:03.385Z,30.73
2019-02-22T00:48:34.488Z,30.37
2019-02-22T00:51:05.972Z,30.67
2019-02-22T00:53:38.408Z,31.63
2019-02-22T00:56:09.354Z,33.03
2019-02-22T00:58:40.467Z,28.40
2019-02-22T01:01:11.841Z,33.50
2019-02-22T01:03:44.015Z,28.50
2019-02-22T01:06:15.168Z,28.80
2019-02-22T01:08:46.148Z,31.07
2019-02-22T01:11:17.385Z,30.87
2019-02-22T01:13:48.916Z,29.20
2019-02-22T01:16:20.242Z,30.83
2019-02-22T01:18:51.263Z,31.67
2019-02-22T01:21:22.239Z,31.47
2019-02-22T01:23:53.145Z,30.80
2019-02-22T01:26:24.242Z,31.07
2019-02-22T01:28:54.990Z,30.37
2019-02-22T01:31:29.952Z,31.57
2019-02-22T01:34:00.752Z,30.67
2019-02-22T01:36:31.846Z,30.87
2019-02-22T01:39:03.457Z,31.10
2019-02-22T01:41:36.072Z,29.47
2019-02-22T01:44:08.322Z,29.27
2019-02-22T01:46:39.579Z,29.30
2019-02-22T01:49:10.500Z,30.70
2019-02-22T01:51:41.824Z,32.17
2019-02-22T01:54:12.867Z,30.10
2019-02-22T01:56:44.021Z,32.30
2019-02-22T02:02:41.470Z,29.23
2019-02-22T02:05:12.439Z,30.57
2019-02-22T02:07:43.404Z,32.27
2019-02-22T02:10:14.484Z,31.10
2019-02-22T02:12:53.598Z,32.07
2019-02-22T02:15:26.128Z,31.80
2019-02-22T02:17:56.833Z,30.47
2019-02-22T02:20:27.916Z,30.30
2019-02-22T02:22:58.874Z,31.63
2019-02-22T02:25:30.180Z,30.20
2019-02-22T02:28:01.063Z,32.70
2019-02-22T02:30:32.147Z,31.07
2019-02-22T02:33:03.430Z,30.17
2019-02-22T02:35:34.441Z,29.93
2019-02-22T02:38:05.435Z,30.23
2019-02-22T02:40:36.669Z,30.27
2019-02-22T02:43:09.316Z,29.27
2019-02-22T02:45:40.873Z,29.83
2019-02-22T02:48:12.084Z,31.27
2019-02-22T02:50:43.139Z,30.83
2019-02-22T02:53:14.308Z,29.60
2019-02-22T02:55:45.315Z,30.70
2019-02-22T02:58:16.542Z,31.37
2019-02-22T03:00:47.441Z,31.63
2019-02-22T03:03:18.592Z,29.20
2019-02-22T03:06:02.124Z,30.87
2019-02-22T03:08:35.131Z,30.77
2019-02-22T03:11:06.155Z,30.40
2019-02-22T03:13:37.122Z,29.47
2019-02-22T03:16:08.304Z,30.20
2019-02-22T03:18:39.379Z,30.13
2019-02-22T03:21:10.442Z,29.20
2019-02-22T03:23:41.451Z,28.20
2019-02-22T03:26:12.470Z,27.43
2019-02-22T03:28:43.578Z,23.60
2019-02-22T03:31:14.578Z,28.20
2019-02-22T03:33:45.634Z,30.33
2019-02-22T03:36:17.406Z,23.20
2019-02-22T03:38:49.165Z,23.37
2019-02-22T03:41:31.911Z,22.20
2019-02-22T03:43:52.771Z,19.67
2019-02-22T03:46:23.902Z,21.33
2019-02-22T03:48:54.799Z,21.43
2019-02-22T03:51:25.779Z,20.57
2019-02-22T03:53:58.987Z,22.07
2019-02-22T03:56:30.027Z,22.93
2019-02-22T03:59:07.765Z,22.17
2019-02-22T04:01:38.601Z,22.67
2019-02-22T04:04:09.641Z,23.30
2019-02-22T04:06:40.824Z,23.40
2019-02-22T04:09:12.791Z,22.10
2019-02-22T04:11:46.091Z,23.77
2019-02-22T04:14:16.620Z,24.07
2019-02-22T04:16:47.564Z,23.50
2019-02-22T04:19:26.707Z,24.93
2019-02-22T04:21:58.090Z,23.10
2019-02-22T04:24:30.071Z,24.27
2019-02-22T04:27:01.147Z,24.63
2019-02-22T04:29:32.240Z,23.77
2019-02-22T04:32:03.303Z,21.73
2019-02-22T04:34:34.267Z,20.70
2019-02-22T04:37:05.384Z,19.50
2019-02-22T04:39:36.558Z,18.20
2019-02-22T04:42:07.655Z,19.20
2019-02-22T04:44:38.716Z,19.10
2019-02-22T04:47:09.751Z,18.53
2019-02-22T04:49:40.844Z,18.10
2019-02-22T04:52:12.055Z,17.73
2019-02-22T04:54:43.128Z,18.10
2019-02-22T04:57:14.136Z,18.87
2019-02-22T04:59:45.186Z,19.23
2019-02-22T05:02:16.212Z,17.90
2019-02-22T05:04:47.276Z,17.20
2019-02-22T05:07:18.363Z,18.30
2019-02-22T05:09:49.444Z,16.27
2019-02-22T05:12:20.494Z,22.03
2019-02-22T05:14:51.111Z,18.40
2019-02-22T05:17:22.217Z,18.30
2019-02-22T05:19:52.883Z,18.83
2019-02-22T05:22:23.898Z,19.90
2019-02-22T05:24:55.089Z,17.97
2019-02-22T05:27:26.098Z,18.63
2019-02-22T05:29:56.746Z,19.13
2019-02-22T05:32:28.161Z,20.03
2019-02-22T05:34:59.191Z,19.03
2019-02-22T05:37:30.387Z,18.60
2019-02-22T05:40:01.693Z,18.00
2019-02-22T05:42:33.761Z,18.93
2019-02-22T05:45:05.136Z,23.10
2019-02-22T05:47:36.311Z,18.40
2019-02-22T05:50:07.522Z,18.60
2019-02-22T05:52:38.509Z,19.00
2019-02-22T05:55:09.605Z,18.80
2019-02-22T05:57:40.695Z,20.83
2019-02-22T06:00:11.925Z,21.53
2019-02-22T06:02:43.209Z,22.57
2019-02-22T06:05:14.377Z,20.00
2019-02-22T06:07:46.063Z,19.90
2019-02-22T06:10:17.100Z,19.13
2019-02-22T06:12:48.412Z,21.37
2019-02-22T06:15:19.650Z,20.67
2019-02-22T06:17:50.477Z,20.80
2019-02-22T06:20:21.647Z,21.33
2019-02-22T06:22:52.708Z,21.87
2019-02-22T06:25:23.857Z,20.87
2019-02-22T06:27:54.916Z,21.67
2019-02-22T06:30:26.042Z,21.80
2019-02-22T06:32:56.691Z,22.83
2019-02-22T06:35:27.743Z,20.90
2019-02-22T06:37:58.402Z,21.33
2019-02-22T06:40:29.484Z,21.70
2019-02-22T06:43:00.612Z,20.30
2019-02-22T06:45:35.215Z,22.63
2019-02-22T06:48:06.603Z,22.57
2019-02-22T06:50:38.882Z,22.70
2019-02-22T06:53:10.014Z,23.13
2019-02-22T06:55:41.169Z,20.57
2019-02-22T06:58:13.579Z,21.60
2019-02-22T07:00:44.620Z,22.77
2019-02-22T07:03:15.762Z,24.20
2019-02-22T07:05:46.863Z,23.47
2019-02-22T07:08:18.096Z,25.97
2019-02-22T07:11:08.987Z,22.30
2019-02-22T07:13:40.249Z,22.77
2019-02-22T07:16:11.429Z,21.50
2019-02-22T07:18:42.523Z,21.60
2019-02-22T07:21:13.600Z,24.33
2019-02-22T07:23:44.726Z,23.93
2019-02-22T07:26:17.085Z,23.77
2019-02-22T07:28:48.205Z,24.57
2019-02-22T07:31:19.254Z,24.13
2019-02-22T07:33:50.057Z,25.27
2019-02-22T07:36:21.270Z,25.20
2019-02-22T07:38:52.251Z,36.73
2019-02-22T07:41:26.723Z,24.90
2019-02-22T07:43:57.413Z,24.30
2019-02-22T07:46:28.511Z,23.20
2019-02-22T07:48:59.908Z,24.65
2019-02-22T07:51:31.239Z,27.70
2019-02-22T07:54:02.408Z,23.77
2019-02-22T07:56:33.391Z,26.77
2019-02-22T07:59:04.522Z,26.90
2019-02-22T08:01:46.583Z,25.33
2019-02-22T08:04:08.655Z,28.00
2019-02-22T08:06:42.431Z,27.83
2019-02-22T08:09:13.663Z,29.77
2019-02-22T08:11:47.402Z,26.77
2019-02-22T08:14:17.662Z,27.47
2019-02-22T08:16:48.554Z,29.70
2019-02-22T08:19:19.647Z,27.10
2019-02-22T08:21:50.541Z,29.73
2019-02-22T08:24:21.457Z,26.97
2019-02-22T08:26:52.592Z,26.30
2019-02-22T08:29:23.672Z,28.50
2019-02-22T08:31:54.328Z,27.33
2019-02-22T08:34:25.644Z,34.83
2019-02-22T08:36:56.338Z,28.67
2019-02-22T08:39:27.692Z,27.33
2019-02-22T08:41:58.405Z,29.65
2019-02-22T08:44:29.850Z,28.83
2019-02-22T08:47:02.623Z,29.53
2019-02-22T08:49:33.863Z,29.43
2019-02-22T08:52:04.728Z,29.63
2019-02-22T08:54:46.259Z,30.00
2019-02-22T08:57:08.040Z,28.33
2019-02-22T08:59:38.981Z,30.50
2019-02-22T09:02:10.339Z,27.03
2019-02-22T09:04:45.163Z,30.07
2019-02-22T09:07:16.374Z,27.23
2019-02-22T09:09:48.056Z,26.03
2019-02-22T09:12:23.873Z,30.00
2019-02-22T09:14:55.480Z,27.90
2019-02-22T09:17:26.691Z,30.23
2019-02-22T09:19:58.456Z,28.73
2019-02-22T09:22:29.672Z,26.30
2019-02-22T09:25:00.745Z,25.53
2019-02-22T09:27:32.625Z,25.13
2019-02-22T09:30:03.742Z,27.63
2019-02-22T09:32:34.852Z,28.60
2019-02-22T09:35:06.372Z,26.87
2019-02-22T09:37:37.551Z,27.37
2019-02-22T09:40:10.218Z,25.83
2019-02-22T09:42:41.287Z,25.43
2019-02-22T09:45:12.591Z,24.77
2019-02-22T09:47:44.130Z,26.40
2019-02-22T09:50:15.118Z,29.27
2019-02-22T09:52:46.204Z,25.47
2019-02-22T09:55:17.258Z,24.63
2019-02-22T09:57:48.273Z,25.20
2019-02-22T10:00:19.534Z,25.93
2019-02-22T10:02:50.638Z,27.93
2019-02-22T10:05:21.776Z,26.50
2019-02-22T10:07:52.593Z,24.60
2019-02-22T10:10:23.731Z,26.73
2019-02-22T10:12:54.764Z,26.57
2019-02-22T10:15:25.777Z,27.57
2019-02-22T10:17:56.509Z,25.07
2019-02-22T10:20:28.571Z,27.90
2019-02-22T10:22:59.476Z,25.20
2019-02-22T10:25:30.487Z,26.80
2019-02-22T10:28:01.598Z,23.20
2019-02-22T10:30:32.561Z,27.60
2019-02-22T10:33:04.907Z,26.97
2019-02-22T10:35:43.471Z,27.63
2019-02-22T10:38:14.998Z,26.03
2019-02-22T10:40:46.103Z,30.40
2019-02-22T10:43:17.497Z,29.40
2019-02-22T10:46:22.442Z,27.80
2019-02-22T10:48:53.267Z,29.10
2019-02-22T10:51:24.267Z,31.63
2019-02-22T10:53:54.918Z,32.20
2019-02-22T10:56:30.295Z,28.80
2019-02-22T10:59:02.342Z,27.37
2019-02-22T11:01:33.838Z,29.00
2019-02-22T11:04:05.143Z,23.83
2019-02-22T11:06:36.301Z,20.10
2019-02-22T11:09:08.484Z,12.47
2019-02-22T11:11:40.628Z,11.40
2019-02-22T11:14:12.543Z,12.67
2019-02-22T11:16:43.731Z,9.83
2019-02-22T11:19:14.914Z,10.00
2019-02-22T11:21:46.113Z,8.60
2019-02-22T11:24:19.866Z,9.97
2019-02-22T11:26:50.721Z,10.37
2019-02-22T11:29:21.910Z,10.57
2019-02-22T11:31:52.618Z,9.10
2019-02-22T11:34:23.762Z,9.07
2019-02-22T11:36:55.141Z,10.10
2019-02-22T11:39:26.335Z,12.13
2019-02-22T11:41:57.453Z,10.90
2019-02-22T11:44:39.619Z,10.73
2019-02-22T11:47:01.176Z,10.13
2019-02-22T11:49:35.760Z,10.63
2019-02-22T11:52:06.851Z,9.70
2019-02-22T11:54:37.923Z,10.70
2019-02-22T11:57:09.203Z,10.80
2019-02-22T11:59:40.359Z,10.50
2019-02-22T12:02:11.434Z,11.03
2019-02-22T12:04:43.090Z,10.27
2019-02-22T12:07:14.667Z,9.90
2019-02-22T12:09:45.811Z,10.57
2019-02-22T12:12:16.927Z,10.23
2019-02-22T12:14:51.563Z,9.73
2019-02-22T12:17:20.848Z,10.27
2019-02-22T12:19:51.601Z,10.03
2019-02-22T12:22:23.029Z,8.60
2019-02-22T12:24:54.125Z,9.00
2019-02-22T12:27:25.461Z,9.40
2019-02-22T12:29:56.190Z,7.73
2019-02-22T12:32:27.186Z,8.23
2019-02-22T12:34:57.873Z,9.27
2019-02-22T12:37:29.133Z,8.40
2019-02-22T12:40:00.572Z,7.77
2019-02-22T12:43:43.287Z,13.90
2019-02-22T12:46:14.697Z,11.17
2019-02-22T12:48:45.863Z,10.03
2019-02-22T12:51:16.881Z,10.70
2019-02-22T12:53:48.009Z,11.07
2019-02-22T12:56:21.446Z,11.27
2019-02-22T12:58:51.605Z,11.50
2019-02-22T13:01:24.557Z,10.70
2019-02-22T13:03:56.196Z,10.13
2019-02-22T13:06:32.548Z,9.13
2019-02-22T13:09:06.545Z,9.37
2019-02-22T13:11:40.612Z,8.23
2019-02-22T13:14:14.211Z,8.30
2019-02-22T13:16:47.761Z,7.33
2019-02-22T13:19:21.014Z,7.77
2019-02-22T13:21:52.247Z,8.10
2019-02-22T13:24:23.452Z,7.40
2019-02-22T13:26:54.211Z,8.53
2019-02-22T13:29:25.400Z,8.00
2019-02-22T13:31:56.470Z,7.80
2019-02-22T13:34:27.713Z,10.50
2019-02-22T13:36:58.996Z,8.10
2019-02-22T13:39:30.100Z,7.23
2019-02-22T13:42:04.674Z,7.57
2019-02-22T13:44:35.810Z,7.17
2019-02-22T13:47:07.260Z,8.63
2019-02-22T13:49:38.278Z,7.50
2019-02-22T13:52:09.476Z,8.83
2019-02-22T13:54:40.639Z,8.07
2019-02-22T14:04:49.315Z,7.10
2019-02-22T14:07:20.480Z,7.20
2019-02-22T14:09:51.510Z,6.40
2019-02-22T14:12:22.603Z,6.83
2019-02-22T14:14:53.504Z,7.37
2019-02-22T14:17:24.612Z,7.57
2019-02-22T14:19:55.324Z,7.20
2019-02-22T14:22:26.738Z,7.17
2019-02-22T14:24:57.631Z,8.57
2019-02-22T14:27:28.680Z,14.53
2019-02-22T14:29:59.469Z,13.77
2019-02-22T14:32:39.301Z,15.20
2019-02-22T14:35:10.512Z,14.67
2019-02-22T14:37:41.694Z,14.93
2019-02-22T14:40:13.123Z,13.73
2019-02-22T14:42:44.310Z,14.60
2019-02-22T14:45:16.487Z,14.57
2019-02-22T14:47:47.713Z,14.10
2019-02-22T14:50:19.063Z,13.67
2019-02-22T14:52:50.128Z,15.20
2019-02-22T14:55:21.759Z,12.10
2019-02-22T14:58:22.747Z,12.23
2019-02-22T15:00:53.452Z,13.40
2019-02-22T15:03:25.795Z,14.90
2019-02-22T15:05:56.829Z,13.93
2019-02-22T15:09:28.016Z,13.73
2019-02-22T15:12:02.157Z,11.53
2019-02-22T15:14:36.490Z,11.40
2019-02-22T15:17:45.052Z,11.40
2019-02-22T15:20:16.106Z,13.10
2019-02-22T15:22:47.317Z,14.00
2019-02-22T15:25:18.436Z,12.07
2019-02-22T15:27:49.516Z,12.90
2019-02-22T15:30:38.854Z,11.23
2019-02-22T15:33:09.969Z,9.80
2019-02-22T15:35:44.390Z,10.73
2019-02-22T15:38:15.995Z,11.23
2019-02-22T15:40:47.243Z,11.93
2019-02-22T15:43:18.270Z,14.33
2019-02-22T15:45:49.736Z,11.63
2019-02-22T15:48:23.888Z,12.63
2019-02-22T15:50:55.111Z,11.77
2019-02-22T15:53:28.788Z,11.50
2019-02-22T15:55:59.651Z,12.90
2019-02-22T15:58:31.816Z,12.10
2019-02-22T16:01:02.629Z,12.97
2019-02-22T16:04:11.291Z,10.97
2019-02-22T16:06:42.579Z,12.53
2019-02-22T16:09:14.296Z,11.50
2019-02-22T16:11:46.821Z,12.50
2019-02-22T16:14:17.924Z,13.30
2019-02-22T16:16:50.070Z,13.37
2019-02-22T16:19:21.489Z,10.90
2019-02-22T16:21:52.767Z,11.53
2019-02-22T16:24:23.608Z,13.10
2019-02-22T16:27:12.798Z,12.30
2019-02-22T16:29:44.144Z,12.30
2019-02-22T16:32:15.328Z,13.20
2019-02-22T16:34:47.173Z,12.50
2019-02-22T16:37:18.730Z,10.80
2019-02-22T16:39:52.370Z,11.40
2019-02-22T16:42:22.925Z,11.77
2019-02-22T16:44:54.243Z,11.47
2019-02-22T16:47:25.615Z,12.47
2019-02-22T16:49:56.633Z,12.53
2019-02-22T16:52:27.837Z,13.80
2019-02-22T16:54:58.608Z,10.07
2019-02-22T16:57:30.035Z,11.17
2019-02-22T17:00:04.410Z,12.37
2019-02-22T17:02:37.304Z,10.80
2019-02-22T17:05:09.488Z,12.70
2019-02-22T17:07:57.526Z,10.17
2019-02-22T17:10:29.069Z,10.90
2019-02-22T17:13:00.053Z,10.17
2019-02-22T17:15:32.115Z,10.10
2019-02-22T17:18:03.666Z,10.70
2019-02-22T17:20:46.603Z,9.43
2019-02-22T17:23:18.464Z,9.13
2019-02-22T17:25:49.999Z,10.10
2019-02-22T17:28:22.120Z,11.53
2019-02-22T17:30:55.160Z,12.20
2019-02-22T17:33:26.598Z,10.70
2019-02-22T17:35:58.268Z,9.97
2019-02-22T17:38:30.681Z,8.50
2019-02-22T17:41:02.431Z,19.90
2019-02-22T17:43:35.012Z,12.13
2019-02-22T17:46:06.937Z,9.77
2019-02-22T17:48:39.003Z,8.80
2019-02-22T17:51:10.836Z,8.10
2019-02-22T17:53:41.805Z,9.77
2019-02-22T17:56:13.269Z,9.53
2019-02-22T17:58:44.342Z,9.33
2019-02-22T18:01:15.474Z,9.77
2019-02-22T18:03:47.487Z,8.37
2019-02-22T18:06:23.312Z,8.60
2019-02-22T18:08:54.315Z,10.80
2019-02-22T18:11:25.746Z,12.97
2019-02-22T18:13:58.453Z,14.10
2019-02-22T18:16:33.173Z,11.20
2019-02-22T18:19:05.621Z,11.70
2019-02-22T18:21:37.520Z,10.87
2019-02-22T18:24:08.766Z,11.83
2019-02-22T18:26:39.811Z,11.83
2019-02-22T18:29:11.404Z,12.47
2019-02-22T18:31:42.504Z,13.67
2019-02-22T18:34:13.766Z,13.13
2019-02-22T18:36:45.732Z,14.50
2019-02-22T18:39:17.582Z,12.83
2019-02-22T18:41:49.045Z,13.80
2019-02-22T18:44:20.588Z,13.10
2019-02-22T18:46:52.254Z,12.33
2019-02-22T18:49:23.648Z,14.10
2019-02-22T18:51:54.936Z,15.50
2019-02-22T18:54:26.452Z,18.20
2019-02-22T18:56:57.505Z,15.53
2019-02-22T18:59:28.695Z,13.10
2019-02-22T19:01:59.508Z,14.07
2019-02-22T19:04:37.203Z,13.50
2019-02-22T19:07:09.318Z,23.23
2019-02-22T19:09:40.626Z,12.67
2019-02-22T19:12:12.037Z,15.33
2019-02-22T19:14:43.457Z,13.00
2019-02-22T19:17:14.663Z,15.30
2019-02-22T19:19:46.181Z,14.80
2019-02-22T19:22:17.244Z,15.33
2019-02-22T19:24:48.352Z,16.10
2019-02-22T19:27:19.624Z,13.30
2019-02-22T19:29:50.810Z,16.50
2019-02-22T19:32:21.893Z,15.30
2019-02-22T19:34:53.399Z,18.70
2019-02-22T19:37:24.465Z,14.43
2019-02-22T19:39:55.864Z,17.10
2019-02-22T19:42:27.424Z,15.33
2019-02-22T19:44:58.650Z,15.27
2019-02-22T19:47:29.724Z,14.70
2019-02-22T19:50:13.171Z,15.83
2019-02-22T19:52:44.053Z,17.07
2019-02-22T19:55:17.307Z,16.03
2019-02-22T19:57:48.499Z,23.10
2019-02-22T20:00:20.959Z,20.17
2019-02-22T20:02:53.291Z,18.90
2019-02-22T20:05:24.287Z,22.70
2019-02-22T20:07:58.379Z,25.60
2019-02-22T20:10:29.896Z,30.33
2019-02-22T20:13:00.901Z,25.10
2019-02-22T20:15:32.190Z,22.70
2019-02-22T20:18:04.225Z,23.80
2019-02-22T20:20:35.492Z,24.00
2019-02-22T20:23:06.827Z,24.10
2019-02-22T20:25:38.363Z,23.20
2019-02-22T20:28:09.724Z,22.57
2019-02-22T20:30:41.101Z,21.30
2019-02-22T20:33:12.239Z,22.03
2019-02-22T20:35:43.722Z,22.43
2019-02-22T20:38:15.170Z,23.60
2019-02-22T20:40:46.534Z,22.60
2019-02-22T20:43:17.607Z,25.83
2019-02-22T20:45:48.835Z,24.23
2019-02-22T20:48:27.853Z,23.40
2019-02-22T20:50:58.698Z,24.47
2019-02-22T20:53:29.818Z,28.33
2019-02-22T20:56:00.626Z,28.93
2019-02-22T20:58:31.806Z,31.97
2019-02-22T21:01:14.114Z,29.10
2019-02-22T21:03:36.103Z,31.97
2019-02-22T21:06:07.188Z,29.70
2019-02-22T21:08:39.070Z,29.53
2019-02-22T21:11:15.032Z,29.80
2019-02-22T21:13:45.966Z,31.63
2019-02-22T21:16:17.074Z,35.60
2019-02-22T21:18:51.461Z,29.47
2019-02-22T21:21:22.821Z,29.53
2019-02-22T21:23:54.007Z,29.50
2019-02-22T21:26:25.361Z,31.43
2019-02-22T21:28:56.411Z,32.60
2019-02-22T21:31:27.742Z,29.80
2019-02-22T21:33:59.156Z,30.20
2019-02-22T21:36:30.241Z,32.70
2019-02-22T21:39:01.020Z,28.93
2019-02-22T21:41:33.755Z,28.90
2019-02-22T21:44:04.775Z,27.30
2019-02-22T21:46:35.920Z,26.07
2019-02-22T21:49:06.957Z,25.80
2019-02-22T21:51:38.092Z,27.40
2019-02-22T21:54:09.018Z,28.97
2019-02-22T21:56:40.143Z,25.10
2019-02-22T21:59:11.244Z,26.90
2019-02-22T22:01:42.412Z,25.30
2019-02-22T22:04:13.371Z,22.70
2019-02-22T22:06:44.643Z,19.13
2019-02-22T22:09:15.633Z,18.63
2019-02-22T22:11:46.825Z,18.80
2019-02-22T22:14:18.054Z,17.90
2019-02-22T22:16:49.269Z,17.13
2019-02-22T22:19:20.671Z,15.90
2019-02-22T22:21:51.980Z,16.43
2019-02-22T22:24:23.038Z,15.80
2019-02-22T22:26:54.284Z,18.80
2019-02-22T22:29:25.546Z,17.70
2019-02-22T22:31:56.833Z,17.00
2019-02-22T22:34:31.521Z,17.30
2019-02-22T22:37:09.316Z,19.03
2019-02-22T22:39:40.610Z,19.13
2019-02-22T22:42:11.784Z,19.10
2019-02-22T22:44:42.881Z,19.83
2019-02-22T22:47:14.087Z,20.80
2019-02-22T22:49:45.319Z,18.60
2019-02-22T22:52:16.411Z,28.10
2019-02-22T22:54:47.656Z,20.40
2019-02-22T22:57:18.927Z,24.70
2019-02-22T22:59:51.227Z,22.37
2019-02-22T23:02:22.270Z,23.07
2019-02-22T23:04:53.094Z,24.20
2019-02-22T23:07:24.392Z,21.73
2019-02-22T23:09:55.712Z,23.22
2019-02-22T23:12:26.863Z,20.33
2019-02-22T23:14:57.982Z,20.10
2019-02-22T23:17:34.589Z,20.53
2019-02-22T23:20:04.170Z,21.60
2019-02-22T23:22:35.273Z,22.80
2019-02-22T23:25:06.425Z,18.40
2019-02-22T23:27:37.822Z,21.93
2019-02-22T23:30:09.423Z,20.53
2019-02-22T23:32:40.815Z,28.53
2019-02-22T23:35:11.972Z,20.60
2019-02-22T23:37:43.208Z,19.70
2019-02-22T23:40:14.414Z,21.77
2019-02-22T23:42:45.604Z,22.27
2019-02-22T23:45:17.003Z,23.37
2019-02-22T23:47:48.540Z,22.70
2019-02-22T23:50:22.858Z,21.60
2019-02-22T23:52:53.744Z,18.90
2019-02-22T23:55:24.909Z,19.90
2019-02-22T23:57:56.138Z,21.70
